Language: 


Des rapports , des résumés tant et plus, au choix de chacun....


Données Historiques de Météogheer
Journalier Rapport pour Février 16, 2018 Unitée:  Les deux    Impériale   Métrique
Suivant Jour »
Journalier Hebdomadaire Mensuel Annuel Sur mesure
  Max: Min: Moyenne:
Température: 52.9 °F /  11.6 °C 29.5 °F /  -1.4 °C 38.7 °F /  3.7 °C
Point de rosée: 42.8 °F /  6.0 °C 28.4 °F /  -2.0 °C 33.4 °F /  0.8 °C
Humidité: 98% 0% 82%
Vent: 6mph /  9.7km/h - 0.5mph /  0.8km/h
Rafales: 7.8mph /  12.6km/h - -
Vent- - West
Pression: 30.3 in /  1026.0 hPa 30.1 in /  1018.2 hPa -
Pluie: 0 in /  0.0 mm    
Historical Graphs
 
 
Données tabulaires pour Février 16, 2018
Heure Température Point de rosée Pression Vent Vent Rafales Humidité Pluie Taux (Horaire) Conditions
00:02 36.9 °F /  2.7 °C 37.4 °F /  3.0 °C 30.1in /  1018.8hPa WSW 0.9mph /  1.4km/h 4.9mph /  7.9km/h 96% 0in /  0.0mm
00:07 37 °F /  2.8 °C 37.4 °F /  3.0 °C 30.1in /  1018.8hPa Calm   4.9mph /  7.9km/h 96% 0in /  0.0mm
00:12 37 °F /  2.8 °C 37.4 °F /  3.0 °C 30.1in /  1018.8hPa Calm   4.5mph /  7.2km/h 96% 0in /  0.0mm
00:18 37 °F /  2.8 °C 37.4 °F /  3.0 °C 30.1in /  1018.2hPa Calm   5.8mph /  9.3km/h 96% 0in /  0.0mm
00:23 36.9 °F /  2.7 °C 37.4 °F /  3.0 °C 30.1in /  1018.2hPa West 2.2mph /  3.5km/h 5.8mph /  9.3km/h 96% 0in /  0.0mm
00:28 36.9 °F /  2.7 °C 37.4 °F /  3.0 °C 30.1in /  1018.2hPa West 5.4mph /  8.7km/h 6mph /  9.7km/h 96% 0in /  0.0mm
00:33 36.7 °F /  2.6 °C 37.4 °F /  3.0 °C 30.1in /  1018.8hPa West 4.7mph /  7.6km/h 6mph /  9.7km/h 96% 0in /  0.0mm
00:38 36.7 °F /  2.6 °C 37.4 °F /  3.0 °C 30.1in /  1018.8hPa Calm   6mph /  9.7km/h 96% 0in /  0.0mm
00:43 36.5 °F /  2.5 °C 37.4 °F /  3.0 °C 30.1in /  1018.8hPa Calm   6mph /  9.7km/h 96% 0in /  0.0mm
00:48 36.5 °F /  2.5 °C 37.4 °F /  3.0 °C 30.1in /  1018.8hPa WSW 1.6mph /  2.6km/h 5.4mph /  8.7km/h 96% 0in /  0.0mm
00:53 36.5 °F /  2.5 °C 37.4 °F /  3.0 °C 30.1in /  1018.8hPa WNW 1.1mph /  1.8km/h 4.9mph /  7.9km/h 96% 0in /  0.0mm
00:58 36.5 °F /  2.5 °C 37.4 °F /  3.0 °C 30.1in /  1018.8hPa West 4.9mph /  7.9km/h 4.9mph /  7.9km/h 96% 0in /  0.0mm
01:03 36.3 °F /  2.4 °C 35.6 °F /  2.0 °C 30.1in /  1018.8hPa Calm   4.9mph /  7.9km/h 96% 0in /  0.0mm
01:08 36.3 °F /  2.4 °C 35.6 °F /  2.0 °C 30.1in /  1018.8hPa Calm   4mph /  6.4km/h 96% 0in /  0.0mm
01:13 36.1 °F /  2.3 °C 35.6 °F /  2.0 °C 30.1in /  1018.8hPa Calm   4.3mph /  6.9km/h 95% 0in /  0.0mm
01:18 35.8 °F /  2.1 °C 35.6 °F /  2.0 °C 30.1in /  1018.8hPa Calm   4.3mph /  6.9km/h 95% 0in /  0.0mm
01:23 35.1 °F /  1.7 °C 33.8 °F /  1.0 °C 30.1in /  1018.8hPa Calm     94% 0in /  0.0mm
01:28 34.7 °F /  1.5 °C 33.8 °F /  1.0 °C 30.1in /  1018.8hPa Calm     93% 0in /  0.0mm
01:33 34.3 °F /  1.3 °C 32 °F /  0.0 °C 30.1in /  1019.9hPa Calm     92% 0in /  0.0mm
01:38 34.2 °F /  1.2 °C 32 °F /  0.0 °C 30.1in /  1019.9hPa Calm     92% 0in /  0.0mm
01:43 33.6 °F /  0.9 °C 32 °F /  0.0 °C 30.1in /  1019.9hPa Calm     93% 0in /  0.0mm
01:48 33.4 °F /  0.8 °C 32 °F /  0.0 °C 30.1in /  1019.9hPa Calm     92% 0in /  0.0mm
01:53 33.3 °F /  0.7 °C 32 °F /  0.0 °C 30.1in /  1019.9hPa Calm     92% 0in /  0.0mm
01:58 33.1 °F /  0.6 °C 32 °F /  0.0 °C 30.1in /  1019.9hPa Calm     93% 0in /  0.0mm
02:03 33.1 °F /  0.6 °C 32 °F /  0.0 °C 30.1in /  1019.9hPa Calm     93% 0in /  0.0mm
02:08 32.9 °F /  0.5 °C 32 °F /  0.0 °C 30.1in /  1019.9hPa Calm     93% 0in /  0.0mm
02:13 32.5 °F /  0.3 °C 32 °F /  0.0 °C 30.1in /  1019.9hPa Calm     93% 0in /  0.0mm
02:18 32.5 °F /  0.3 °C 32 °F /  0.0 °C 30.2in /  1020.9hPa Calm     93% 0in /  0.0mm
02:23 32.7 °F /  0.4 °C 32 °F /  0.0 °C 30.2in /  1020.9hPa Calm     94% 0in /  0.0mm
02:28 32.5 °F /  0.3 °C 32 °F /  0.0 °C 30.2in /  1020.9hPa Calm     94% 0in /  0.0mm
02:34 32.4 °F /  0.2 °C 30.2 °F /  -1.0 °C 30.2in /  1020.9hPa Calm     94% 0in /  0.0mm
02:39 32.2 °F /  0.1 °C 30.2 °F /  -1.0 °C 30.2in /  1020.9hPa Calm     94% 0in /  0.0mm
02:44 32 °F /  0.0 °C 28.4 °F /  -2.0 °C 30.2in /  1020.9hPa Calm     94% 0in /  0.0mm
02:49 32 °F /  0.0 °C 30.2 °F /  -1.0 °C 30.2in /  1020.9hPa Calm     95% 0in /  0.0mm
02:54 32 °F /  0.0 °C 30.2 °F /  -1.0 °C 30.2in /  1020.9hPa Calm     95% 0in /  0.0mm
02:59 32.2 °F /  0.1 °C 32 °F /  0.0 °C 30.2in /  1020.9hPa Calm     95% 0in /  0.0mm
03:04 32.2 °F /  0.1 °C 32 °F /  0.0 °C 30.2in /  1020.9hPa Calm     95% 0in /  0.0mm
03:09 32 °F /  0.0 °C 30.2 °F /  -1.0 °C 30.2in /  1020.9hPa Calm     96% 0in /  0.0mm
03:14 31.6 °F /  -0.2 °C 30.2 °F /  -1.0 °C 30.2in /  1020.9hPa Calm     95% 0in /  0.0mm
03:19 31.6 °F /  -0.2 °C 30.2 °F /  -1.0 °C 30.2in /  1020.9hPa Calm     95% 0in /  0.0mm
03:24 31.5 °F /  -0.3 °C 28.4 °F /  -2.0 °C 30.2in /  1020.9hPa Calm     95% 0in /  0.0mm
03:29 31.5 °F /  -0.3 °C 28.4 °F /  -2.0 °C 30.2in /  1020.9hPa Calm     95% 0in /  0.0mm
03:34 31.5 °F /  -0.3 °C 28.4 °F /  -2.0 °C 30.2in /  1020.9hPa Calm     95% 0in /  0.0mm
03:39 31.5 °F /  -0.3 °C 30.2 °F /  -1.0 °C 30.2in /  1020.9hPa Calm     96% 0in /  0.0mm
03:44 31.5 °F /  -0.3 °C 30.2 °F /  -1.0 °C 30.2in /  1020.9hPa Calm     96% 0in /  0.0mm
03:49 31.3 °F /  -0.4 °C 28.4 °F /  -2.0 °C 30.2in /  1020.9hPa Calm     95% 0in /  0.0mm
03:54 31.3 °F /  -0.4 °C 28.4 °F /  -2.0 °C 30.2in /  1020.9hPa Calm     95% 0in /  0.0mm
03:59 31.3 °F /  -0.4 °C 30.2 °F /  -1.0 °C 30.2in /  1020.9hPa Calm     96% 0in /  0.0mm
04:04 31.6 °F /  -0.2 °C 30.2 °F /  -1.0 °C 30.2in /  1020.9hPa Calm     96% 0in /  0.0mm
04:09 31.8 °F /  -0.1 °C 30.2 °F /  -1.0 °C 30.2in /  1020.9hPa Calm     96% 0in /  0.0mm
04:14 32.2 °F /  0.1 °C 32 °F /  0.0 °C 30.2in /  1020.9hPa Calm     97% 0in /  0.0mm
04:19 32 °F /  0.0 °C 30.2 °F /  -1.0 °C 30.2in /  1020.9hPa Calm     97% 0in /  0.0mm
04:24 31.6 °F /  -0.2 °C 30.2 °F /  -1.0 °C 30.2in /  1020.9hPa Calm     97% 0in /  0.0mm
04:29 31.6 °F /  -0.2 °C 30.2 °F /  -1.0 °C 30.2in /  1020.9hPa Calm     96% 0in /  0.0mm
04:34 31.5 °F /  -0.3 °C 30.2 °F /  -1.0 °C 30.2in /  1020.9hPa Calm     96% 0in /  0.0mm
04:39 31.5 °F /  -0.3 °C 30.2 °F /  -1.0 °C 30.2in /  1020.9hPa Calm     97% 0in /  0.0mm
04:44 31.5 °F /  -0.3 °C 30.2 °F /  -1.0 °C 30.2in /  1021.9hPa Calm     97% 0in /  0.0mm
04:49 31.3 °F /  -0.4 °C 30.2 °F /  -1.0 °C 30.2in /  1021.9hPa Calm     97% 0in /  0.0mm
04:54 31.3 °F /  -0.4 °C 30.2 °F /  -1.0 °C 30.2in /  1021.9hPa Calm     97% 0in /  0.0mm
04:59 31.3 °F /  -0.4 °C 30.2 °F /  -1.0 °C 30.2in /  1021.9hPa Calm     97% 0in /  0.0mm
05:04 31.1 °F /  -0.5 °C 28.4 °F /  -2.0 °C 30.2in /  1021.9hPa Calm     97% 0in /  0.0mm
05:10 31.1 °F /  -0.5 °C 28.4 °F /  -2.0 °C 30.2in /  1021.9hPa Calm     97% 0in /  0.0mm
05:15 31.1 °F /  -0.5 °C 28.4 °F /  -2.0 °C 30.2in /  1021.9hPa Calm     97% 0in /  0.0mm
05:20 30.9 °F /  -0.6 °C 28.4 °F /  -2.0 °C 30.2in /  1021.9hPa Calm     97% 0in /  0.0mm
05:25 30.7 °F /  -0.7 °C 28.4 °F /  -2.0 °C 30.2in /  1021.9hPa Calm     96% 0in /  0.0mm
05:30 30.9 °F /  -0.6 °C 28.4 °F /  -2.0 °C 30.2in /  1021.9hPa Calm     97% 0in /  0.0mm
05:35 31.5 °F /  -0.3 °C 30.2 °F /  -1.0 °C 30.2in /  1021.9hPa WNW 2.5mph /  4.0km/h 3.8mph /  6.1km/h 98% 0in /  0.0mm
05:40 31.6 °F /  -0.2 °C 30.2 °F /  -1.0 °C 30.2in /  1021.9hPa Calm   3.8mph /  6.1km/h 98% 0in /  0.0mm
05:45 31.8 °F /  -0.1 °C 30.2 °F /  -1.0 °C 30.2in /  1021.9hPa Calm   2.9mph /  4.7km/h 98% 0in /  0.0mm
05:50 31.6 °F /  -0.2 °C 30.2 °F /  -1.0 °C 30.2in /  1021.9hPa Calm   2.9mph /  4.7km/h 98% 0in /  0.0mm
05:55 31.1 °F /  -0.5 °C 30.2 °F /  -1.0 °C 30.2in /  1021.9hPa Calm     98% 0in /  0.0mm
06:00 30.7 °F /  -0.7 °C 28.4 °F /  -2.0 °C 30.2in /  1021.9hPa Calm   0.9mph /  1.4km/h 97% 0in /  0.0mm
06:05 30.4 °F /  -0.9 °C 28.4 °F /  -2.0 °C 30.2in /  1021.9hPa Calm   0.9mph /  1.4km/h 97% 0in /  0.0mm
06:10 30.2 °F /  -1.0 °C 28.4 °F /  -2.0 °C 30.2in /  1021.9hPa Calm     97% 0in /  0.0mm
06:15 30 °F /  -1.1 °C 28.4 °F /  -2.0 °C 30.2in /  1021.9hPa Calm     97% 0in /  0.0mm
06:20 30 °F /  -1.1 °C 28.4 °F /  -2.0 °C 30.2in /  1021.9hPa Calm     97% 0in /  0.0mm
06:25 29.8 °F /  -1.2 °C 28.4 °F /  -2.0 °C 30.2in /  1021.9hPa Calm     97% 0in /  0.0mm
06:30 29.8 °F /  -1.2 °C 28.4 °F /  -2.0 °C 30.2in /  1022.9hPa Calm     97% 0in /  0.0mm
06:35 29.8 °F /  -1.2 °C 28.4 °F /  -2.0 °C 30.2in /  1022.9hPa Calm     97% 0in /  0.0mm
06:40 30 °F /  -1.1 °C 28.4 °F /  -2.0 °C 30.2in /  1022.9hPa Calm     98% 0in /  0.0mm
06:45 30.2 °F /  -1.0 °C 28.4 °F /  -2.0 °C 30.2in /  1022.9hPa Calm     98% 0in /  0.0mm
06:50 30.2 °F /  -1.0 °C 28.4 °F /  -2.0 °C 30.2in /  1022.9hPa Calm     98% 0in /  0.0mm
06:55 30 °F /  -1.1 °C 28.4 °F /  -2.0 °C 30.2in /  1022.9hPa Calm     98% 0in /  0.0mm
07:00 30 °F /  -1.1 °C 28.4 °F /  -2.0 °C 30.2in /  1022.9hPa Calm     98% 0in /  0.0mm
07:06 30.2 °F /  -1.0 °C 28.4 °F /  -2.0 °C 30.2in /  1022.9hPa Calm     98% 0in /  0.0mm
07:11 30.2 °F /  -1.0 °C 28.4 °F /  -2.0 °C 30.2in /  1022.9hPa Calm     98% 0in /  0.0mm
07:16 30.2 °F /  -1.0 °C 28.4 °F /  -2.0 °C 30.2in /  1022.9hPa Calm     98% 0in /  0.0mm
07:21 30 °F /  -1.1 °C 28.4 °F /  -2.0 °C 30.2in /  1022.9hPa Calm     98% 0in /  0.0mm
07:26 29.7 °F /  -1.3 °C 28.4 °F /  -2.0 °C 30.2in /  1022.9hPa Calm     98% 0in /  0.0mm
07:31 29.5 °F /  -1.4 °C 28.4 °F /  -2.0 °C 30.2in /  1022.9hPa Calm     98% 0in /  0.0mm
07:36 29.5 °F /  -1.4 °C 28.4 °F /  -2.0 °C 30.2in /  1022.9hPa Calm     98% 0in /  0.0mm
07:41 29.5 °F /  -1.4 °C 28.4 °F /  -2.0 °C 30.2in /  1022.9hPa Calm     98% 0in /  0.0mm
07:46 29.5 °F /  -1.4 °C 28.4 °F /  -2.0 °C 30.2in /  1021.9hPa Calm   2.7mph /  4.3km/h 98% 0in /  0.0mm
07:51 30 °F /  -1.1 °C 28.4 °F /  -2.0 °C 30.2in /  1021.9hPa Calm   2.7mph /  4.3km/h 98% 0in /  0.0mm
07:56 30.2 °F /  -1.0 °C 28.4 °F /  -2.0 °C 30.2in /  1021.9hPa West 0.9mph /  1.4km/h 0.9mph /  1.4km/h 98% 0in /  0.0mm
08:01 30.4 °F /  -0.9 °C 28.4 °F /  -2.0 °C 30.2in /  1022.9hPa Calm   0.9mph /  1.4km/h 98% 0in /  0.0mm
08:06 30.7 °F /  -0.7 °C 30.2 °F /  -1.0 °C 30.2in /  1022.9hPa Calm   2mph /  3.2km/h 98% 0in /  0.0mm
08:11 30.9 °F /  -0.6 °C 30.2 °F /  -1.0 °C 30.2in /  1022.9hPa Calm   2mph /  3.2km/h 98% 0in /  0.0mm
08:16 30.9 °F /  -0.6 °C 30.2 °F /  -1.0 °C 30.2in /  1022.9hPa Calm   1.3mph /  2.1km/h 98% 0in /  0.0mm
08:21 30.9 °F /  -0.6 °C 30.2 °F /  -1.0 °C 30.2in /  1022.9hPa Calm   1.3mph /  2.1km/h 98% 0in /  0.0mm
08:26 30.6 °F /  -0.8 °C 28.4 °F /  -2.0 °C 30.2in /  1022.9hPa Calm     98% 0in /  0.0mm
08:31 30.6 °F /  -0.8 °C 28.4 °F /  -2.0 °C 30.2in /  1023.9hPa Calm     98% 0in /  0.0mm
08:36 30.6 °F /  -0.8 °C 28.4 °F /  -2.0 °C 30.2in /  1023.9hPa Calm     98% 0in /  0.0mm
08:41 30.9 °F /  -0.6 °C 30.2 °F /  -1.0 °C 30.2in /  1023.9hPa Calm     98% 0in /  0.0mm
08:47 31.5 °F /  -0.3 °C 30.2 °F /  -1.0 °C 30.2in /  1023.9hPa Calm     98% 0in /  0.0mm
08:52 32 °F /  0.0 °C 30.2 °F /  -1.0 °C 30.2in /  1023.9hPa Calm     98% 0in /  0.0mm
08:57 32.5 °F /  0.3 °C 33.8 °F /  1.0 °C 30.2in /  1023.9hPa Calm     98% 0in /  0.0mm
09:02 33.1 °F /  0.6 °C 33.8 °F /  1.0 °C 30.3in /  1024.9hPa Calm   0.9mph /  1.4km/h 98% 0in /  0.0mm
09:07 33.6 °F /  0.9 °C 33.8 °F /  1.0 °C 30.3in /  1024.9hPa Calm   0.9mph /  1.4km/h 98% 0in /  0.0mm
09:12 33.8 °F /  1.0 °C 33.8 °F /  1.0 °C 30.3in /  1024.9hPa Calm     98% 0in /  0.0mm
09:17 34.3 °F /  1.3 °C 33.8 °F /  1.0 °C 30.3in /  1024.9hPa Calm     98% 0in /  0.0mm
09:22 35.1 °F /  1.7 °C 35.6 °F /  2.0 °C 30.3in /  1024.9hPa Calm     98% 0in /  0.0mm
09:27 35.4 °F /  1.9 °C 35.6 °F /  2.0 °C 30.3in /  1024.9hPa Calm   0.9mph /  1.4km/h 98% 0in /  0.0mm
09:32 35.6 °F /  2.0 °C 35.6 °F /  2.0 °C 30.3in /  1024.9hPa Calm   2mph /  3.2km/h 98% 0in /  0.0mm
09:37 35.8 °F /  2.1 °C 35.6 °F /  2.0 °C 30.3in /  1024.9hPa Calm   2mph /  3.2km/h 98% 0in /  0.0mm
09:42 36.1 °F /  2.3 °C 37.4 °F /  3.0 °C 30.3in /  1024.9hPa Calm   2.9mph /  4.7km/h 98% 0in /  0.0mm
09:47 36.5 °F /  2.5 °C 37.4 °F /  3.0 °C 30.2in /  1023.9hPa Calm   2.9mph /  4.7km/h 98% 0in /  0.0mm
09:52 32 °F /  0.0 °C 37.4 °F /  3.0 °C 30.2in /  1023.9hPa Calm   1.1mph /  1.8km/h 0% 0in /  0.0mm
09:57 37.4 °F /  3.0 °C 37.4 °F /  3.0 °C 30.2in /  1023.9hPa Calm     98% 0in /  0.0mm
10:02 37.6 °F /  3.1 °C 37.4 °F /  3.0 °C 30.2in /  1023.9hPa Calm   2.7mph /  4.3km/h 98% 0in /  0.0mm
10:07 37.8 °F /  3.2 °C 37.4 °F /  3.0 °C 30.2in /  1023.9hPa Calm   3.1mph /  5.0km/h 98% 0in /  0.0mm
10:12 38.1 °F /  3.4 °C 37.4 °F /  3.0 °C 30.2in /  1023.9hPa West 2.7mph /  4.3km/h 3.1mph /  5.0km/h 98% 0in /  0.0mm
10:18 38.7 °F /  3.7 °C 39.2 °F /  4.0 °C 30.3in /  1024.9hPa Calm   4.7mph /  7.6km/h 98% 0in /  0.0mm
10:23 39 °F /  3.9 °C 39.2 °F /  4.0 °C 30.3in /  1024.9hPa West 1.3mph /  2.1km/h 4.7mph /  7.6km/h 98% 0in /  0.0mm
10:28 39.6 °F /  4.2 °C 39.2 °F /  4.0 °C 30.3in /  1024.9hPa Calm   4.3mph /  6.9km/h 98% 0in /  0.0mm
10:33 40.1 °F /  4.5 °C 41 °F /  5.0 °C 30.3in /  1024.9hPa Calm   2.2mph /  3.5km/h 98% 0in /  0.0mm
10:38 40.6 °F /  4.8 °C 41 °F /  5.0 °C 30.3in /  1024.9hPa Calm     98% 0in /  0.0mm
10:43 41 °F /  5.0 °C 41 °F /  5.0 °C 30.3in /  1024.9hPa Calm   2.2mph /  3.5km/h 98% 0in /  0.0mm
10:48 41.7 °F /  5.4 °C 42.8 °F /  6.0 °C 30.3in /  1026.0hPa Calm   3.1mph /  5.0km/h 98% 0in /  0.0mm
10:53 42.3 °F /  5.7 °C 42.8 °F /  6.0 °C 30.3in /  1026.0hPa Calm   3.1mph /  5.0km/h 97% 0in /  0.0mm
10:58 43 °F /  6.1 °C 42.8 °F /  6.0 °C 30.3in /  1026.0hPa Calm     97% 0in /  0.0mm
11:03 43.5 °F /  6.4 °C 42.8 °F /  6.0 °C 30.3in /  1026.0hPa Calm     96% 0in /  0.0mm
11:04 43.7 °F /  6.5 °C 42.8 °F /  6.0 °C 30.3in /  1026.0hPa Calm     96% 0in /  0.0mm
11:09 44.1 °F /  6.7 °C 42.8 °F /  6.0 °C 30.3in /  1026.0hPa Calm   2mph /  3.2km/h 94% 0in /  0.0mm
11:14 44.4 °F /  6.9 °C 42.8 °F /  6.0 °C 30.3in /  1026.0hPa West 3.4mph /  5.5km/h 3.8mph /  6.1km/h 93% 0in /  0.0mm
11:19 44.8 °F /  7.1 °C 42.8 °F /  6.0 °C 30.3in /  1026.0hPa West 3.6mph /  5.8km/h 6.5mph /  10.5km/h 92% 0in /  0.0mm
11:24 44.8 °F /  7.1 °C 42.8 °F /  6.0 °C 30.3in /  1026.0hPa West 6mph /  9.7km/h 6.5mph /  10.5km/h 90% 0in /  0.0mm
11:29 45 °F /  7.2 °C 42.8 °F /  6.0 °C 30.3in /  1026.0hPa WSW 5.4mph /  8.7km/h 6mph /  9.7km/h 90% 0in /  0.0mm
11:36 45.1 °F /  7.3 °C 42.8 °F /  6.0 °C 30.3in /  1026.0hPa Calm   6mph /  9.7km/h 88% 0in /  0.0mm
11:41 46 °F /  7.8 °C 42.8 °F /  6.0 °C 30.3in /  1026.0hPa Calm   6mph /  9.7km/h 87% 0in /  0.0mm
11:46 46.2 °F /  7.9 °C 42.8 °F /  6.0 °C 30.3in /  1026.0hPa Calm   0.9mph /  1.4km/h 87% 0in /  0.0mm
11:51 46.9 °F /  8.3 °C 42.8 °F /  6.0 °C 30.3in /  1026.0hPa Calm   0.9mph /  1.4km/h 85% 0in /  0.0mm
11:56 47.7 °F /  8.7 °C 42.8 °F /  6.0 °C 30.3in /  1026.0hPa Calm     84% 0in /  0.0mm
12:01 48.2 °F /  9.0 °C 42.8 °F /  6.0 °C 30.3in /  1026.0hPa Calm     83% 0in /  0.0mm
12:06 48.7 °F /  9.3 °C 42.8 °F /  6.0 °C 30.3in /  1026.0hPa Calm   3.8mph /  6.1km/h 79% 0in /  0.0mm
12:11 49.1 °F /  9.5 °C 42.8 °F /  6.0 °C 30.3in /  1026.0hPa Calm   3.8mph /  6.1km/h 76% 0in /  0.0mm
12:16 49.1 °F /  9.5 °C 42.8 °F /  6.0 °C 30.3in /  1026.0hPa WNW 4mph /  6.4km/h 7.8mph /  12.6km/h 74% 0in /  0.0mm
12:21 49.3 °F /  9.6 °C 42.8 °F /  6.0 °C 30.3in /  1026.0hPa Calm   7.8mph /  12.6km/h 75% 0in /  0.0mm
12:26 49.5 °F /  9.7 °C 42.8 °F /  6.0 °C 30.3in /  1026.0hPa WSW 2.9mph /  4.7km/h 6.5mph /  10.5km/h 74% 0in /  0.0mm
12:31 49.5 °F /  9.7 °C 41 °F /  5.0 °C 30.3in /  1026.0hPa Calm   7.4mph /  11.9km/h 73% 0in /  0.0mm
12:36 49.6 °F /  9.8 °C 41 °F /  5.0 °C 30.3in /  1026.0hPa West 3.8mph /  6.1km/h 7.4mph /  11.9km/h 71% 0in /  0.0mm
12:41 50 °F /  10.0 °C 41 °F /  5.0 °C 30.3in /  1026.0hPa West 5.4mph /  8.7km/h 5.4mph /  8.7km/h 71% 0in /  0.0mm
12:46 50.2 °F /  10.1 °C 41 °F /  5.0 °C 30.3in /  1026.0hPa West 5.4mph /  8.7km/h 7.4mph /  11.9km/h 69% 0in /  0.0mm
12:51 50 °F /  10.0 °C 41 °F /  5.0 °C 30.3in /  1026.0hPa West 4.9mph /  7.9km/h 7.4mph /  11.9km/h 69% 0in /  0.0mm
12:56 50 °F /  10.0 °C 41 °F /  5.0 °C 30.3in /  1026.0hPa WSW 5.8mph /  9.3km/h 7.6mph /  12.2km/h 68% 0in /  0.0mm
13:01 50.2 °F /  10.1 °C 39.2 °F /  4.0 °C 30.3in /  1026.0hPa Calm   7.6mph /  12.2km/h 66% 0in /  0.0mm
13:06 50.9 °F /  10.5 °C 41 °F /  5.0 °C 30.3in /  1026.0hPa Calm   5.8mph /  9.3km/h 68% 0in /  0.0mm
13:12 50.7 °F /  10.4 °C 39.2 °F /  4.0 °C 30.3in /  1026.0hPa NNW 3.8mph /  6.1km/h 6.5mph /  10.5km/h 66% 0in /  0.0mm
13:17 48.9 °F /  9.4 °C 37.4 °F /  3.0 °C 30.3in /  1026.0hPa Calm   6.5mph /  10.5km/h 62% 0in /  0.0mm
13:22 48.2 °F /  9.0 °C 37.4 °F /  3.0 °C 30.3in /  1026.0hPa Calm   4.3mph /  6.9km/h 63% 0in /  0.0mm
13:27 47.7 °F /  8.7 °C 37.4 °F /  3.0 °C 30.3in /  1026.0hPa Calm   4.3mph /  6.9km/h 66% 0in /  0.0mm
13:32 47.3 °F /  8.5 °C 37.4 °F /  3.0 °C 30.3in /  1026.0hPa Calm   4.3mph /  6.9km/h 66% 0in /  0.0mm
13:37 47.1 °F /  8.4 °C 37.4 °F /  3.0 °C 30.3in /  1026.0hPa Calm   3.4mph /  5.5km/h 67% 0in /  0.0mm
13:42 47.1 °F /  8.4 °C 37.4 °F /  3.0 °C 30.3in /  1026.0hPa Calm   1.6mph /  2.6km/h 68% 0in /  0.0mm
13:47 48 °F /  8.9 °C 39.2 °F /  4.0 °C 30.3in /  1026.0hPa Calm   2.2mph /  3.5km/h 69% 0in /  0.0mm
13:52 48.7 °F /  9.3 °C 39.2 °F /  4.0 °C 30.3in /  1026.0hPa NW 2.7mph /  4.3km/h 3.8mph /  6.1km/h 69% 0in /  0.0mm
13:57 49.5 °F /  9.7 °C 39.2 °F /  4.0 °C 30.3in /  1026.0hPa WSW 4.9mph /  7.9km/h 5.6mph /  9.0km/h 67% 0in /  0.0mm
14:02 50.4 °F /  10.2 °C 39.2 °F /  4.0 °C 30.3in /  1024.9hPa WSW 4mph /  6.4km/h 5.6mph /  9.0km/h 66% 0in /  0.0mm
14:07 50.7 °F /  10.4 °C 39.2 °F /  4.0 °C 30.3in /  1024.9hPa Calm   4.9mph /  7.9km/h 65% 0in /  0.0mm
14:12 51.3 °F /  10.7 °C 39.2 °F /  4.0 °C 30.3in /  1024.9hPa Calm   4.7mph /  7.6km/h 64% 0in /  0.0mm
14:17 51.6 °F /  10.9 °C 39.2 °F /  4.0 °C 30.3in /  1024.9hPa West 2.5mph /  4.0km/h 2.5mph /  4.0km/h 62% 0in /  0.0mm
14:22 52 °F /  11.1 °C 37.4 °F /  3.0 °C 30.3in /  1024.9hPa WSW 4.3mph /  6.9km/h 5.8mph /  9.3km/h 58% 0in /  0.0mm
14:27 52.2 °F /  11.2 °C 39.2 °F /  4.0 °C 30.3in /  1024.9hPa Calm   5.8mph /  9.3km/h 59% 0in /  0.0mm
14:32 52.3 °F /  11.3 °C 37.4 °F /  3.0 °C 30.3in /  1024.9hPa WSW 5.4mph /  8.7km/h 5.4mph /  8.7km/h 57% 0in /  0.0mm
14:37 52.2 °F /  11.2 °C 37.4 °F /  3.0 °C 30.3in /  1024.9hPa Calm   5.4mph /  8.7km/h 56% 0in /  0.0mm
14:42 52 °F /  11.1 °C 37.4 °F /  3.0 °C 30.3in /  1024.9hPa WSW 5.4mph /  8.7km/h 5.4mph /  8.7km/h 56% 0in /  0.0mm
14:48 52.5 °F /  11.4 °C 37.4 °F /  3.0 °C 30.2in /  1023.9hPa West 3.1mph /  5.0km/h 5.4mph /  8.7km/h 57% 0in /  0.0mm
14:53 52.5 °F /  11.4 °C 37.4 °F /  3.0 °C 30.2in /  1023.9hPa Calm   6mph /  9.7km/h 55% 0in /  0.0mm
14:58 52.9 °F /  11.6 °C 37.4 °F /  3.0 °C 30.2in /  1023.9hPa Calm   6mph /  9.7km/h 55% 0in /  0.0mm
15:03 52.7 °F /  11.5 °C 37.4 °F /  3.0 °C 30.3in /  1024.9hPa West 5.8mph /  9.3km/h 6.7mph /  10.8km/h 55% 0in /  0.0mm
15:08 52.3 °F /  11.3 °C 37.4 °F /  3.0 °C 30.3in /  1024.9hPa West 4.5mph /  7.2km/h 6.7mph /  10.8km/h 54% 0in /  0.0mm
15:13 52.3 °F /  11.3 °C 35.6 °F /  2.0 °C 30.3in /  1024.9hPa WSW 6mph /  9.7km/h 6mph /  9.7km/h 52% 0in /  0.0mm
15:18 52.5 °F /  11.4 °C 35.6 °F /  2.0 °C 30.3in /  1024.9hPa Calm   6mph /  9.7km/h 53% 0in /  0.0mm
15:23 52.2 °F /  11.2 °C 35.6 °F /  2.0 °C 30.3in /  1024.9hPa Calm   6.5mph /  10.5km/h 52% 0in /  0.0mm
15:28 52.2 °F /  11.2 °C 35.6 °F /  2.0 °C 30.3in /  1024.9hPa Calm   6.5mph /  10.5km/h 53% 0in /  0.0mm
15:33 52.3 °F /  11.3 °C 35.6 °F /  2.0 °C 30.3in /  1024.9hPa Calm   6mph /  9.7km/h 53% 0in /  0.0mm
15:38 52.3 °F /  11.3 °C 35.6 °F /  2.0 °C 30.3in /  1024.9hPa Calm   4mph /  6.4km/h 52% 0in /  0.0mm
15:43 52.5 °F /  11.4 °C 35.6 °F /  2.0 °C 30.3in /  1024.9hPa Calm   4mph /  6.4km/h 52% 0in /  0.0mm
15:48 52.3 °F /  11.3 °C 33.8 °F /  1.0 °C 30.3in /  1024.9hPa Calm   3.6mph /  5.8km/h 50% 0in /  0.0mm
15:53 52.5 °F /  11.4 °C 35.6 °F /  2.0 °C 30.3in /  1024.9hPa Calm   3.6mph /  5.8km/h 51% 0in /  0.0mm
15:58 52.9 °F /  11.6 °C 35.6 °F /  2.0 °C 30.3in /  1024.9hPa Calm   3.1mph /  5.0km/h 52% 0in /  0.0mm
16:03 52.5 °F /  11.4 °C 35.6 °F /  2.0 °C 30.3in /  1024.9hPa Calm   3.4mph /  5.5km/h 51% 0in /  0.0mm
16:08 51.8 °F /  11.0 °C 33.8 °F /  1.0 °C 30.3in /  1024.9hPa WSW 4mph /  6.4km/h 4.3mph /  6.9km/h 51% 0in /  0.0mm
16:14 51.3 °F /  10.7 °C 33.8 °F /  1.0 °C 30.3in /  1026.0hPa Calm   4.3mph /  6.9km/h 50% 0in /  0.0mm
16:19 51.3 °F /  10.7 °C 33.8 °F /  1.0 °C 30.3in /  1026.0hPa Calm   1.3mph /  2.1km/h 51% 0in /  0.0mm
16:24 51.6 °F /  10.9 °C 35.6 °F /  2.0 °C 30.3in /  1026.0hPa Calm   1.3mph /  2.1km/h 52% 0in /  0.0mm
16:29 51.8 °F /  11.0 °C 35.6 °F /  2.0 °C 30.3in /  1024.9hPa Calm     52% 0in /  0.0mm
16:34 52 °F /  11.1 °C 35.6 °F /  2.0 °C 30.3in /  1024.9hPa Calm   2.2mph /  3.5km/h 52% 0in /  0.0mm
16:39 51.6 °F /  10.9 °C 35.6 °F /  2.0 °C 30.3in /  1024.9hPa Calm   2.2mph /  3.5km/h 52% 0in /  0.0mm
16:44 51.3 °F /  10.7 °C 33.8 °F /  1.0 °C 30.3in /  1024.9hPa Calm   1.3mph /  2.1km/h 52% 0in /  0.0mm
16:49 50.9 °F /  10.5 °C 33.8 °F /  1.0 °C 30.3in /  1024.9hPa Calm   1.3mph /  2.1km/h 52% 0in /  0.0mm
16:54 50.4 °F /  10.2 °C 33.8 °F /  1.0 °C 30.3in /  1024.9hPa Calm     52% 0in /  0.0mm
16:59 50.2 °F /  10.1 °C 33.8 °F /  1.0 °C 30.3in /  1024.9hPa Calm     53% 0in /  0.0mm
17:04 50 °F /  10.0 °C 33.8 °F /  1.0 °C 30.3in /  1024.9hPa Calm     53% 0in /  0.0mm
17:09 49.6 °F /  9.8 °C 33.8 °F /  1.0 °C 30.3in /  1024.9hPa Calm     53% 0in /  0.0mm
17:14 49.5 °F /  9.7 °C 33.8 °F /  1.0 °C 30.3in /  1024.9hPa Calm     53% 0in /  0.0mm
17:19 48.9 °F /  9.4 °C 33.8 °F /  1.0 °C 30.3in /  1024.9hPa Calm     54% 0in /  0.0mm
17:24 48.2 °F /  9.0 °C 33.8 °F /  1.0 °C 30.3in /  1024.9hPa Calm     54% 0in /  0.0mm
17:29 47.5 °F /  8.6 °C 32 °F /  0.0 °C 30.2in /  1023.9hPa Calm     55% 0in /  0.0mm
17:34 46.9 °F /  8.3 °C 32 °F /  0.0 °C 30.2in /  1023.9hPa Calm     55% 0in /  0.0mm
17:39 46.4 °F /  8.0 °C 32 °F /  0.0 °C 30.2in /  1023.9hPa Calm     56% 0in /  0.0mm
17:44 46 °F /  7.8 °C 32 °F /  0.0 °C 30.2in /  1023.9hPa Calm     57% 0in /  0.0mm
17:49 45.3 °F /  7.4 °C 30.2 °F /  -1.0 °C 30.2in /  1023.9hPa Calm     57% 0in /  0.0mm
17:54 44.8 °F /  7.1 °C 30.2 °F /  -1.0 °C 30.2in /  1023.9hPa Calm     58% 0in /  0.0mm
17:59 44.2 °F /  6.8 °C 30.2 °F /  -1.0 °C 30.3in /  1024.9hPa Calm     59% 0in /  0.0mm
18:04 43.7 °F /  6.5 °C 32 °F /  0.0 °C 30.3in /  1024.9hPa Calm     60% 0in /  0.0mm
18:09 43.2 °F /  6.2 °C 30.2 °F /  -1.0 °C 30.3in /  1024.9hPa Calm     61% 0in /  0.0mm
18:14 42.8 °F /  6.0 °C 30.2 °F /  -1.0 °C 30.3in /  1024.9hPa Calm     61% 0in /  0.0mm
18:20 42.3 °F /  5.7 °C 30.2 °F /  -1.0 °C 30.3in /  1024.9hPa Calm     62% 0in /  0.0mm
18:25 41.5 °F /  5.3 °C 30.2 °F /  -1.0 °C 30.3in /  1024.9hPa Calm     64% 0in /  0.0mm
18:30 41 °F /  5.0 °C 30.2 °F /  -1.0 °C 30.2in /  1023.9hPa Calm     66% 0in /  0.0mm
18:35 40.5 °F /  4.7 °C 30.2 °F /  -1.0 °C 30.2in /  1023.9hPa Calm     67% 0in /  0.0mm
18:40 39.7 °F /  4.3 °C 30.2 °F /  -1.0 °C 30.2in /  1023.9hPa Calm     67% 0in /  0.0mm
18:45 39.2 °F /  4.0 °C 30.2 °F /  -1.0 °C 30.3in /  1024.9hPa Calm     68% 0in /  0.0mm
18:50 38.8 °F /  3.8 °C 30.2 °F /  -1.0 °C 30.3in /  1024.9hPa Calm     70% 0in /  0.0mm
18:55 38.3 °F /  3.5 °C 30.2 °F /  -1.0 °C 30.3in /  1024.9hPa Calm     70% 0in /  0.0mm
19:00 37.9 °F /  3.3 °C 30.2 °F /  -1.0 °C 30.3in /  1024.9hPa Calm     71% 0in /  0.0mm
19:05 37.6 °F /  3.1 °C 30.2 °F /  -1.0 °C 30.3in /  1024.9hPa Calm     71% 0in /  0.0mm
19:10 37.6 °F /  3.1 °C 30.2 °F /  -1.0 °C 30.3in /  1024.9hPa Calm     72% 0in /  0.0mm
19:15 37.4 °F /  3.0 °C 30.2 °F /  -1.0 °C 30.3in /  1024.9hPa Calm     73% 0in /  0.0mm
19:20 37 °F /  2.8 °C 30.2 °F /  -1.0 °C 30.3in /  1024.9hPa Calm     73% 0in /  0.0mm
19:25 37 °F /  2.8 °C 30.2 °F /  -1.0 °C 30.3in /  1024.9hPa Calm     74% 0in /  0.0mm
19:30 36.9 °F /  2.7 °C 30.2 °F /  -1.0 °C 30.3in /  1024.9hPa Calm     74% 0in /  0.0mm
19:35 36.7 °F /  2.6 °C 30.2 °F /  -1.0 °C 30.3in /  1024.9hPa Calm     75% 0in /  0.0mm
19:40 36.7 °F /  2.6 °C 30.2 °F /  -1.0 °C 30.3in /  1024.9hPa Calm     75% 0in /  0.0mm
19:45 36.5 °F /  2.5 °C 30.2 °F /  -1.0 °C 30.3in /  1024.9hPa Calm     76% 0in /  0.0mm
19:50 36.5 °F /  2.5 °C 30.2 °F /  -1.0 °C 30.3in /  1024.9hPa Calm     76% 0in /  0.0mm
19:55 36.3 °F /  2.4 °C 30.2 °F /  -1.0 °C 30.3in /  1024.9hPa Calm     77% 0in /  0.0mm
20:00 36.3 °F /  2.4 °C 30.2 °F /  -1.0 °C 30.3in /  1024.9hPa Calm     77% 0in /  0.0mm
20:05 36.1 °F /  2.3 °C 30.2 °F /  -1.0 °C 30.3in /  1024.9hPa Calm     77% 0in /  0.0mm
20:10 35.8 °F /  2.1 °C 30.2 °F /  -1.0 °C 30.3in /  1024.9hPa Calm     77% 0in /  0.0mm
20:15 35.6 °F /  2.0 °C 30.2 °F /  -1.0 °C 30.3in /  1024.9hPa Calm     77% 0in /  0.0mm
20:20 35.2 °F /  1.8 °C 28.4 °F /  -2.0 °C 30.3in /  1024.9hPa Calm     77% 0in /  0.0mm
20:25 35.1 °F /  1.7 °C 28.4 °F /  -2.0 °C 30.3in /  1024.9hPa Calm     77% 0in /  0.0mm
20:30 34.9 °F /  1.6 °C 28.4 °F /  -2.0 °C 30.2in /  1023.9hPa Calm     78% 0in /  0.0mm
20:35 34.5 °F /  1.4 °C 28.4 °F /  -2.0 °C 30.2in /  1023.9hPa Calm     78% 0in /  0.0mm
20:40 34.5 °F /  1.4 °C 28.4 °F /  -2.0 °C 30.2in /  1023.9hPa Calm     78% 0in /  0.0mm
20:45 34.5 °F /  1.4 °C 28.4 °F /  -2.0 °C 30.3in /  1024.9hPa Calm     79% 0in /  0.0mm
20:51 34.7 °F /  1.5 °C 30.2 °F /  -1.0 °C 30.3in /  1024.9hPa Calm     79% 0in /  0.0mm
20:56 34.7 °F /  1.5 °C 30.2 °F /  -1.0 °C 30.3in /  1024.9hPa Calm     79% 0in /  0.0mm
21:01 34.7 °F /  1.5 °C 30.2 °F /  -1.0 °C 30.2in /  1023.9hPa Calm     80% 0in /  0.0mm
21:06 34.9 °F /  1.6 °C 30.2 °F /  -1.0 °C 30.2in /  1023.9hPa Calm     80% 0in /  0.0mm
21:11 35.1 °F /  1.7 °C 30.2 °F /  -1.0 °C 30.2in /  1023.9hPa Calm     81% 0in /  0.0mm
21:16 34.9 °F /  1.6 °C 30.2 °F /  -1.0 °C 30.2in /  1023.9hPa Calm     81% 0in /  0.0mm
21:21 35.1 °F /  1.7 °C 30.2 °F /  -1.0 °C 30.2in /  1023.9hPa NNE 1.1mph /  1.8km/h 2.9mph /  4.7km/h 82% 0in /  0.0mm
21:26 35.1 °F /  1.7 °C 30.2 °F /  -1.0 °C 30.2in /  1023.9hPa Calm   2.9mph /  4.7km/h 82% 0in /  0.0mm
21:31 35.1 °F /  1.7 °C 30.2 °F /  -1.0 °C 30.2in /  1023.9hPa Calm     83% 0in /  0.0mm
21:36 35.1 °F /  1.7 °C 30.2 °F /  -1.0 °C 30.2in /  1023.9hPa Calm     83% 0in /  0.0mm
21:41 35.2 °F /  1.8 °C 30.2 °F /  -1.0 °C 30.2in /  1023.9hPa Calm     83% 0in /  0.0mm
21:46 35.4 °F /  1.9 °C 32 °F /  0.0 °C 30.2in /  1023.9hPa Calm     84% 0in /  0.0mm
21:51 35.4 °F /  1.9 °C 32 °F /  0.0 °C 30.2in /  1023.9hPa Calm     84% 0in /  0.0mm
21:56 35.4 °F /  1.9 °C 32 °F /  0.0 °C 30.2in /  1023.9hPa Calm   2.7mph /  4.3km/h 84% 0in /  0.0mm
22:01 35.4 °F /  1.9 °C 32 °F /  0.0 °C 30.2in /  1022.9hPa Calm   2.7mph /  4.3km/h 84% 0in /  0.0mm
22:06 35.2 °F /  1.8 °C 30.2 °F /  -1.0 °C 30.2in /  1022.9hPa Calm     84% 0in /  0.0mm
22:11 35.2 °F /  1.8 °C 30.2 °F /  -1.0 °C 30.2in /  1022.9hPa Calm     84% 0in /  0.0mm
22:16 35.2 °F /  1.8 °C 30.2 °F /  -1.0 °C 30.2in /  1022.9hPa Calm     84% 0in /  0.0mm
22:21 35.2 °F /  1.8 °C 30.2 °F /  -1.0 °C 30.2in /  1022.9hPa Calm   2.2mph /  3.5km/h 84% 0in /  0.0mm
22:27 35.2 °F /  1.8 °C 30.2 °F /  -1.0 °C 30.2in /  1022.9hPa Calm   2.2mph /  3.5km/h 84% 0in /  0.0mm
22:32 35.2 °F /  1.8 °C 32 °F /  0.0 °C 30.2in /  1022.9hPa Calm     85% 0in /  0.0mm
22:37 35.1 °F /  1.7 °C 30.2 °F /  -1.0 °C 30.2in /  1022.9hPa Calm     84% 0in /  0.0mm
22:42 35.1 °F /  1.7 °C 30.2 °F /  -1.0 °C 30.2in /  1022.9hPa Calm     84% 0in /  0.0mm
22:47 35.1 °F /  1.7 °C 32 °F /  0.0 °C 30.2in /  1022.9hPa Calm     85% 0in /  0.0mm
22:52 35.1 °F /  1.7 °C 32 °F /  0.0 °C 30.2in /  1022.9hPa Calm     85% 0in /  0.0mm
22:57 34.9 °F /  1.6 °C 30.2 °F /  -1.0 °C 30.2in /  1022.9hPa Calm   0.9mph /  1.4km/h 84% 0in /  0.0mm
23:02 34.9 °F /  1.6 °C 32 °F /  0.0 °C 30.2in /  1022.9hPa Calm   0.9mph /  1.4km/h 85% 0in /  0.0mm
23:07 35.1 °F /  1.7 °C 32 °F /  0.0 °C 30.2in /  1022.9hPa Calm     85% 0in /  0.0mm
23:12 35.1 °F /  1.7 °C 32 °F /  0.0 °C 30.2in /  1022.9hPa Calm     85% 0in /  0.0mm
23:17 35.1 °F /  1.7 °C 32 °F /  0.0 °C 30.2in /  1021.9hPa Calm     85% 0in /  0.0mm
23:22 35.1 °F /  1.7 °C 32 °F /  0.0 °C 30.2in /  1021.9hPa Calm     85% 0in /  0.0mm
23:27 34.9 °F /  1.6 °C 32 °F /  0.0 °C 30.2in /  1021.9hPa Calm     85% 0in /  0.0mm
23:32 34.9 °F /  1.6 °C 32 °F /  0.0 °C 30.2in /  1022.9hPa Calm     85% 0in /  0.0mm
23:37 34.7 °F /  1.5 °C 32 °F /  0.0 °C 30.2in /  1022.9hPa Calm     85% 0in /  0.0mm
23:42 34.9 °F /  1.6 °C 32 °F /  0.0 °C 30.2in /  1022.9hPa Calm     85% 0in /  0.0mm
23:47 34.9 °F /  1.6 °C 32 °F /  0.0 °C 30.2in /  1022.9hPa Calm     86% 0in /  0.0mm
23:52 34.9 °F /  1.6 °C 32 °F /  0.0 °C 30.2in /  1022.9hPa Calm   1.3mph /  2.1km/h 86% 0in /  0.0mm
23:57 34.9 °F /  1.6 °C 32 °F /  0.0 °C 30.2in /  1022.9hPa Calm   1.3mph /  2.1km/h 86% 0in /  0.0mm
Données Historique de Météo Turbie

Mise a jour : 18/06/2018 01:39:12
Généré par Cumulus 1.9.4 (1099)